Time;durP1;ratioP1;P1;durP2;ratioP2;P2;SDS_P1;SDS_P2;PMS_P1;PMS_P2;Temp;Humidity;BMP_temperature;BMP_pressure;BME280_temperature;BME280_humidity;BME280_pressure;Samples;Min_cycle;Max_cycle;Signal;HPM_P1;HPM_P2
2024/01/23 00:02:03;;;;;;;8.48;2.38;;;11.20;99.90;;;;;;5047375;28;20247;-76
2024/01/23 00:04:29;;;;;;;7.30;1.75;;;11.20;99.90;;;;;;5048709;28;20263;-75
2024/01/23 00:06:55;;;;;;;9.40;2.77;;;11.20;99.90;;;;;;5040048;28;20926;-75
2024/01/23 00:09:21;;;;;;;9.70;1.97;;;11.20;99.90;;;;;;5058200;28;20205;-75
2024/01/23 00:11:46;;;;;;;15.00;2.50;;;11.20;99.90;;;;;;5043049;28;20583;-75
2024/01/23 00:14:12;;;;;;;9.33;2.03;;;11.20;99.90;;;;;;5053007;28;20234;-75
2024/01/23 00:16:38;;;;;;;13.90;3.90;;;11.20;99.90;;;;;;5041851;28;20181;-75
2024/01/23 00:19:03;;;;;;;13.53;3.50;;;11.20;99.90;;;;;;5032418;28;20591;-76
2024/01/23 00:21:29;;;;;;;9.07;2.93;;;11.20;99.90;;;;;;5058837;28;20185;-76
2024/01/23 00:23:55;;;;;;;13.90;2.90;;;11.10;99.90;;;;;;5027972;28;20180;-77
2024/01/23 00:26:21;;;;;;;10.07;2.17;;;11.10;99.90;;;;;;5043445;28;20519;-77
2024/01/23 00:28:47;;;;;;;12.10;2.20;;;11.10;99.90;;;;;;5044155;28;20536;-77
2024/01/23 00:31:12;;;;;;;15.50;3.27;;;11.10;99.90;;;;;;5046233;28;20204;-76
2024/01/23 00:33:38;;;;;;;18.67;3.00;;;11.10;99.90;;;;;;5059829;28;20592;-77
2024/01/23 00:36:04;;;;;;;13.33;3.50;;;11.00;99.90;;;;;;5046661;28;20173;-76
2024/01/23 00:38:31;;;;;;;9.38;2.40;;;11.00;99.90;;;;;;5040561;28;20184;-76
2024/01/23 00:40:57;;;;;;;12.40;2.92;;;11.00;99.90;;;;;;5040271;28;20208;-77
2024/01/23 00:43:22;;;;;;;13.60;3.03;;;11.00;99.90;;;;;;5039742;28;20653;-76
2024/01/23 00:45:48;;;;;;;10.87;2.40;;;11.00;99.90;;;;;;5061164;28;20191;-76
2024/01/23 00:48:14;;;;;;;16.30;2.57;;;11.00;99.90;;;;;;5052007;28;20211;-76
2024/01/23 00:50:40;;;;;;;12.90;2.90;;;11.00;99.90;;;;;;5070035;28;20709;-77
2024/01/23 00:53:05;;;;;;;19.43;3.67;;;11.00;99.90;;;;;;5052075;28;20241;-76
2024/01/23 00:55:31;;;;;;;16.33;3.27;;;11.00;99.90;;;;;;5051082;28;20184;-76
2024/01/23 00:57:57;;;;;;;19.27;3.50;;;11.00;99.90;;;;;;5035518;28;20267;-76
2024/01/23 01:00:22;;;;;;;18.87;3.93;;;11.00;99.90;;;;;;5052123;28;20249;-77
2024/01/23 01:02:48;;;;;;;14.50;2.10;;;11.00;99.90;;;;;;5069861;28;20183;-77
2024/01/23 01:05:14;;;;;;;9.90;2.40;;;10.90;99.90;;;;;;5051405;28;20173;-77
2024/01/23 01:07:40;;;;;;;11.00;3.17;;;10.90;99.90;;;;;;5069775;28;20211;-77
2024/01/23 01:10:06;;;;;;;9.20;2.57;;;10.90;99.90;;;;;;5069847;28;20602;-77
2024/01/23 01:12:33;;;;;;;12.73;2.15;;;10.80;99.90;;;;;;5051919;28;20176;-76
2024/01/23 01:15:00;;;;;;;11.25;2.75;;;10.80;99.90;;;;;;5051740;28;20641;-76
2024/01/23 01:17:27;;;;;;;11.05;2.55;;;10.80;99.90;;;;;;5076339;28;20270;-76
2024/01/23 01:19:53;;;;;;;11.70;3.45;;;10.70;99.90;;;;;;5048380;28;20201;-76
2024/01/23 01:22:19;;;;;;;10.60;2.40;;;10.70;99.90;;;;;;5063069;28;20246;-76
2024/01/23 01:24:45;;;;;;;13.83;3.03;;;10.80;99.90;;;;;;5033802;28;20177;-76
2024/01/23 01:27:10;;;;;;;17.73;2.80;;;10.70;99.90;;;;;;5071802;28;20925;-76
2024/01/23 01:29:36;;;;;;;16.83;3.97;;;10.70;99.90;;;;;;5046524;28;20208;-76
2024/01/23 01:32:02;;;;;;;13.63;3.17;;;10.70;99.90;;;;;;5043935;28;20181;-76
2024/01/23 01:34:28;;;;;;;15.70;3.30;;;10.70;99.90;;;;;;5069396;28;20183;-76
2024/01/23 01:36:54;;;;;;;11.55;2.92;;;10.70;99.90;;;;;;5069341;28;20606;-76
2024/01/23 01:39:20;;;;;;;12.67;2.20;;;10.70;99.90;;;;;;5077839;28;20289;-76
2024/01/23 01:41:55;;;;;;;12.60;2.93;;;10.70;99.90;;;;;;5055135;28;20293;-76
2024/01/23 01:44:21;;;;;;;15.50;3.05;;;10.60;99.90;;;;;;5073050;28;20623;-77
2024/01/23 01:46:51;;;;;;;11.23;1.70;;;10.60;99.90;;;;;;5071974;28;20247;-77
2024/01/23 01:49:17;;;;;;;8.18;1.70;;;10.60;99.90;;;;;;5054245;28;20764;-76
2024/01/23 01:51:44;;;;;;;12.90;2.50;;;10.60;99.90;;;;;;5046551;28;20177;-77
2024/01/23 01:54:09;;;;;;;9.43;2.33;;;10.50;99.90;;;;;;5067935;28;20670;-76
2024/01/23 01:56:35;;;;;;;10.57;2.83;;;10.50;99.90;;;;;;5069016;28;20182;-77
2024/01/23 01:59:01;;;;;;;13.03;2.43;;;10.40;99.90;;;;;;5056935;28;20176;-77
2024/01/23 02:01:27;;;;;;;10.23;2.07;;;10.30;99.90;;;;;;5046494;28;21208;-77
2024/01/23 02:03:53;;;;;;;9.52;2.15;;;10.20;99.90;;;;;;5046468;28;20184;-77
2024/01/23 02:06:20;;;;;;;12.75;2.58;;;10.10;99.90;;;;;;5053981;28;20297;-77
2024/01/23 02:08:48;;;;;;;9.25;2.60;;;10.00;99.90;;;;;;5033634;28;20172;-77
2024/01/23 02:11:14;;;;;;;10.73;2.28;;;10.00;99.90;;;;;;5054949;28;20228;-77
2024/01/23 02:13:41;;;;;;;8.70;2.50;;;9.90;99.90;;;;;;5068987;28;20161;-77
2024/01/23 02:16:08;;;;;;;11.57;2.10;;;9.90;99.90;;;;;;5077968;28;20172;-77
2024/01/23 02:18:33;;;;;;;14.30;2.72;;;9.80;99.90;;;;;;5083879;28;20211;-77
2024/01/23 02:20:59;;;;;;;14.40;2.87;;;9.70;99.90;;;;;;5046109;28;20191;-77
2024/01/23 02:23:29;;;;;;;11.30;1.90;;;9.70;99.90;;;;;;5054436;28;20747;-77
2024/01/23 02:25:55;;;;;;;14.48;2.50;;;9.60;99.90;;;;;;5056638;28;20242;-77
2024/01/23 02:28:21;;;;;;;11.82;2.00;;;9.60;99.90;;;;;;5039359;28;20607;-77
2024/01/23 02:30:46;;;;;;;13.60;3.10;;;9.60;99.90;;;;;;5054054;28;20261;-77
2024/01/23 02:33:13;;;;;;;15.53;2.90;;;9.50;99.90;;;;;;5053778;28;20578;-76
2024/01/23 02:35:39;;;;;;;14.77;2.30;;;9.50;99.90;;;;;;5053313;28;20616;-77
2024/01/23 02:38:05;;;;;;;15.73;2.78;;;9.50;99.90;;;;;;5054031;28;20230;-77
2024/01/23 02:40:31;;;;;;;12.85;2.58;;;9.50;99.90;;;;;;5056376;28;20189;-77
2024/01/23 02:42:57;;;;;;;9.40;2.27;;;9.40;99.90;;;;;;5020048;28;20173;-77
2024/01/23 02:45:23;;;;;;;12.57;2.73;;;9.40;99.90;;;;;;5060299;28;20582;-77
2024/01/23 02:47:49;;;;;;;6.63;1.47;;;9.40;99.90;;;;;;5070571;28;20349;-77
2024/01/23 02:50:14;;;;;;;11.10;2.20;;;9.40;99.90;;;;;;5039901;28;20625;-77
2024/01/23 02:52:40;;;;;;;9.37;2.27;;;9.30;99.90;;;;;;5064004;28;20694;-77
2024/01/23 02:55:06;;;;;;;14.33;2.40;;;9.30;99.90;;;;;;5052847;28;20311;-77
2024/01/23 02:57:41;;;;;;;15.48;2.72;;;9.30;99.90;;;;;;5053392;28;20176;-77
2024/01/23 03:00:08;;;;;;;6.68;1.83;;;9.30;99.90;;;;;;5049183;28;20188;-77
2024/01/23 03:02:33;;;;;;;7.38;3.38;;;9.30;99.90;;;;;;5041309;28;20170;-76
2024/01/23 03:04:59;;;;;;;12.27;2.10;;;9.30;99.90;;;;;;5044358;28;20541;-74
2024/01/23 03:07:25;;;;;;;8.13;2.00;;;9.30;99.90;;;;;;5036593;28;20637;-74
2024/01/23 03:09:50;;;;;;;14.93;3.83;;;9.30;99.90;;;;;;5056311;28;20281;-74
2024/01/23 03:12:18;;;;;;;7.10;2.03;;;9.30;99.90;;;;;;5042854;28;20223;-74
2024/01/23 03:14:45;;;;;;;16.90;3.70;;;9.30;99.90;;;;;;5044255;28;20175;-73
2024/01/23 03:17:11;;;;;;;8.55;2.15;;;9.30;99.90;;;;;;5075637;28;20179;-74
2024/01/23 03:19:38;;;;;;;10.73;1.50;;;9.30;99.90;;;;;;5074372;28;20195;-74
2024/01/23 03:22:04;;;;;;;5.82;1.45;;;9.40;99.90;;;;;;5045200;28;20180;-73
2024/01/23 03:24:30;;;;;;;8.13;1.30;;;9.40;99.90;;;;;;5057535;28;20181;-74
2024/01/23 03:26:56;;;;;;;12.73;1.97;;;9.40;99.90;;;;;;5067662;28;20211;-73
2024/01/23 03:29:23;;;;;;;13.32;2.35;;;9.50;99.90;;;;;;5064520;28;20630;-73
2024/01/23 03:31:49;;;;;;;8.27;1.70;;;9.50;99.90;;;;;;5044459;28;20180;-74
2024/01/23 03:34:15;;;;;;;14.57;2.10;;;9.50;99.90;;;;;;5047735;28;20188;-74
2024/01/23 03:36:41;;;;;;;14.50;2.30;;;9.60;99.90;;;;;;5057885;28;20534;-74
2024/01/23 03:39:07;;;;;;;12.20;2.43;;;9.60;99.90;;;;;;5058204;28;20163;-73
2024/01/23 03:41:35;;;;;;;12.82;2.90;;;9.60;99.90;;;;;;5067563;28;20580;-73
2024/01/23 03:44:03;;;;;;;12.43;2.58;;;9.60;99.90;;;;;;5051854;28;20212;-73
2024/01/23 03:46:28;;;;;;;13.85;2.17;;;9.70;99.90;;;;;;5062653;28;20204;-73
2024/01/23 03:48:54;;;;;;;11.93;2.37;;;9.70;99.90;;;;;;5068764;28;20172;-74
2024/01/23 03:51:20;;;;;;;8.83;2.20;;;9.70;99.90;;;;;;5070439;28;20897;-74
2024/01/23 03:53:45;;;;;;;12.37;2.07;;;9.70;99.90;;;;;;5041781;28;20183;-74
2024/01/23 03:56:11;;;;;;;13.23;2.20;;;9.80;99.90;;;;;;5061513;28;20165;-74
2024/01/23 03:58:36;;;;;;;12.70;2.83;;;9.80;99.90;;;;;;5044159;28;20165;-74
2024/01/23 04:01:02;;;;;;;12.10;2.63;;;9.80;99.90;;;;;;5019404;28;20195;-73
2024/01/23 04:03:28;;;;;;;9.97;2.20;;;9.70;99.90;;;;;;5045737;28;20173;-73
2024/01/23 04:05:54;;;;;;;13.65;4.68;;;9.70;99.90;;;;;;5059774;28;20193;-73
2024/01/23 04:08:20;;;;;;;10.00;2.15;;;9.70;99.90;;;;;;5075819;28;20213;-73
2024/01/23 04:10:46;;;;;;;9.30;2.60;;;9.70;99.90;;;;;;5054286;28;20180;-73
2024/01/23 04:13:11;;;;;;;7.00;1.83;;;9.70;99.90;;;;;;5035615;28;20179;-73
2024/01/23 04:15:37;;;;;;;10.07;2.50;;;9.70;99.90;;;;;;5069712;28;20180;-73
2024/01/23 04:18:03;;;;;;;14.43;2.80;;;9.70;99.90;;;;;;5053475;28;20180;-73
2024/01/23 04:20:29;;;;;;;14.63;2.70;;;9.70;99.90;;;;;;5068716;28;20210;-73
2024/01/23 04:22:55;;;;;;;17.37;4.10;;;9.70;99.90;;;;;;5063554;28;20928;-73
2024/01/23 04:25:20;;;;;;;13.35;2.17;;;9.70;99.90;;;;;;5046160;28;20172;-73
2024/01/23 04:27:46;;;;;;;7.83;1.90;;;9.70;99.90;;;;;;5040806;28;20200;-73
2024/01/23 04:30:12;;;;;;;10.07;3.03;;;9.70;99.90;;;;;;5043601;28;20567;-73
2024/01/23 04:32:37;;;;;;;13.40;2.60;;;9.80;99.90;;;;;;5070276;28;20695;-73
2024/01/23 04:35:04;;;;;;;15.00;3.00;;;9.80;99.90;;;;;;5061207;28;20725;-72
2024/01/23 04:37:29;;;;;;;15.55;2.42;;;9.80;99.90;;;;;;5070032;28;20263;-73
2024/01/23 04:39:55;;;;;;;14.40;2.60;;;9.80;99.90;;;;;;5041895;28;20355;-74
2024/01/23 04:42:21;;;;;;;8.13;2.17;;;9.70;99.90;;;;;;5055385;28;20646;-73
2024/01/23 04:44:47;;;;;;;9.88;2.70;;;9.70;99.90;;;;;;5026597;28;20173;-73
2024/01/23 04:47:12;;;;;;;11.77;2.27;;;9.60;99.90;;;;;;5052052;28;20200;-73
2024/01/23 04:49:38;;;;;;;10.27;2.53;;;9.60;99.90;;;;;;5051950;28;20189;-74
2024/01/23 04:52:04;;;;;;;10.67;2.33;;;9.60;99.90;;;;;;5061458;28;20192;-74
2024/01/23 04:54:30;;;;;;;10.50;2.60;;;9.60;99.90;;;;;;5076466;28;20549;-74
2024/01/23 04:56:56;;;;;;;13.63;2.60;;;9.50;99.90;;;;;;5056280;28;20618;-74
2024/01/23 04:59:21;;;;;;;14.33;2.73;;;9.50;99.90;;;;;;5053789;28;20656;-73
2024/01/23 05:01:47;;;;;;;12.43;2.60;;;9.50;99.90;;;;;;5059884;28;20188;-74
2024/01/23 05:04:13;;;;;;;12.10;2.67;;;9.50;99.90;;;;;;5071734;28;20521;-74
2024/01/23 05:06:38;;;;;;;18.07;3.13;;;9.50;99.90;;;;;;5061699;28;20218;-74
2024/01/23 05:09:04;;;;;;;9.33;3.10;;;9.40;99.90;;;;;;5055941;28;20184;-74
2024/01/23 05:11:30;;;;;;;10.20;2.73;;;9.40;99.90;;;;;;5047230;28;20622;-74
2024/01/23 05:13:55;;;;;;;12.37;2.63;;;9.40;99.90;;;;;;5047167;28;20183;-74
2024/01/23 05:16:21;;;;;;;8.27;2.03;;;9.30;99.90;;;;;;5064515;28;20173;-74
2024/01/23 05:18:47;;;;;;;9.90;2.20;;;9.30;99.90;;;;;;5081041;28;20254;-74
2024/01/23 05:21:14;;;;;;;12.50;2.13;;;9.20;99.90;;;;;;5034939;28;20227;-74
2024/01/23 05:23:41;;;;;;;10.85;2.10;;;9.20;99.90;;;;;;5043185;28;20164;-74
2024/01/23 05:26:07;;;;;;;12.60;2.13;;;9.10;99.90;;;;;;5064163;28;20187;-74
2024/01/23 05:28:33;;;;;;;9.25;2.38;;;9.10;99.90;;;;;;5055010;28;20200;-74
2024/01/23 05:30:58;;;;;;;10.13;2.60;;;9.10;99.90;;;;;;5064603;28;20261;-74
2024/01/23 05:33:24;;;;;;;9.80;2.67;;;9.00;99.90;;;;;;5049935;28;20363;-74
2024/01/23 05:35:50;;;;;;;9.70;2.07;;;9.00;99.90;;;;;;5040395;28;20173;-74
2024/01/23 05:38:15;;;;;;;8.77;1.80;;;9.00;99.90;;;;;;5042678;28;20173;-72
2024/01/23 05:40:41;;;;;;;10.80;2.60;;;8.90;99.90;;;;;;5025885;28;20234;-72
2024/01/23 05:43:07;;;;;;;5.00;2.03;;;8.90;99.90;;;;;;5052385;28;20173;-72
2024/01/23 05:45:33;;;;;;;7.07;1.67;;;8.90;99.90;;;;;;5042560;28;20671;-72
2024/01/23 05:47:58;;;;;;;9.47;2.00;;;8.80;99.90;;;;;;5044664;28;20205;-72
2024/01/23 05:50:24;;;;;;;8.73;2.00;;;8.80;99.90;;;;;;5024156;28;20211;-72
2024/01/23 05:52:50;;;;;;;8.68;2.30;;;8.80;99.90;;;;;;5031247;28;20176;-72
2024/01/23 05:55:19;;;;;;;12.38;2.17;;;8.80;99.90;;;;;;5064793;28;20176;-72
2024/01/23 05:57:44;;;;;;;13.23;2.20;;;8.70;99.90;;;;;;5051150;28;20177;-72
2024/01/23 06:00:13;;;;;;;10.47;2.47;;;8.70;99.90;;;;;;5069204;28;20201;-72
2024/01/23 06:02:38;;;;;;;16.67;2.65;;;8.70;99.90;;;;;;5040576;28;20190;-72
2024/01/23 06:05:05;;;;;;;9.10;2.00;;;8.70;99.90;;;;;;5072585;28;20184;-72
2024/01/23 06:07:30;;;;;;;10.38;2.00;;;8.60;99.90;;;;;;5071871;28;20626;-72
2024/01/23 06:09:56;;;;;;;12.60;2.57;;;8.60;99.90;;;;;;5046236;28;20196;-72
2024/01/23 06:12:22;;;;;;;9.77;2.43;;;8.60;99.90;;;;;;5054529;28;20259;-72
2024/01/23 06:14:48;;;;;;;9.97;1.83;;;8.60;99.90;;;;;;5079831;28;20612;-72
2024/01/23 06:17:13;;;;;;;11.00;2.63;;;8.60;99.90;;;;;;5068630;28;20235;-72
2024/01/23 06:19:40;;;;;;;9.87;2.23;;;8.60;99.90;;;;;;5047724;28;20199;-72
2024/01/23 06:22:05;;;;;;;14.45;2.75;;;8.60;99.90;;;;;;5092422;28;20222;-73
2024/01/23 06:24:31;;;;;;;12.33;2.97;;;8.60;99.90;;;;;;5057703;28;20612;-72
2024/01/23 06:26:57;;;;;;;9.80;2.05;;;8.60;99.90;;;;;;5091633;28;20203;-72
2024/01/23 06:29:23;;;;;;;8.77;1.70;;;8.60;99.90;;;;;;5092098;28;20199;-73
2024/01/23 06:31:49;;;;;;;10.30;1.60;;;8.50;99.90;;;;;;5066071;28;20176;-72
2024/01/23 06:34:16;;;;;;;8.65;2.00;;;8.50;99.90;;;;;;5037430;28;20234;-72
2024/01/23 06:36:46;;;;;;;14.57;2.63;;;8.50;99.90;;;;;;5053528;28;20177;-71
2024/01/23 06:39:12;;;;;;;11.68;2.25;;;8.50;99.90;;;;;;5009026;28;20173;-71
2024/01/23 06:41:38;;;;;;;11.50;2.17;;;8.50;99.90;;;;;;5075485;28;20195;-72
2024/01/23 06:44:04;;;;;;;13.73;3.47;;;8.50;99.90;;;;;;5037206;28;20580;-76
2024/01/23 06:46:30;;;;;;;5.13;1.37;;;8.50;99.90;;;;;;5074328;28;20180;-76
2024/01/23 06:48:55;;;;;;;9.10;2.07;;;8.50;99.90;;;;;;5071367;28;20182;-76
2024/01/23 06:51:27;;;;;;;12.40;1.83;;;8.50;99.90;;;;;;5037635;28;20652;-76
2024/01/23 06:54:02;;;;;;;11.23;1.90;;;8.50;99.90;;;;;;5053073;28;20173;-76
2024/01/23 06:56:28;;;;;;;8.57;2.45;;;8.50;99.90;;;;;;5033908;28;20199;-77
2024/01/23 06:58:54;;;;;;;7.13;1.80;;;8.50;99.90;;;;;;5052136;28;20163;-77
2024/01/23 07:01:22;;;;;;;13.23;2.58;;;8.40;99.90;;;;;;5062379;28;20623;-77
2024/01/23 07:03:49;;;;;;;15.20;2.70;;;8.40;99.90;;;;;;5045164;28;20263;-78
2024/01/23 07:06:15;;;;;;;9.88;1.80;;;8.50;99.90;;;;;;5068020;28;20177;-78
2024/01/23 07:08:42;;;;;;;13.17;2.37;;;8.40;99.90;;;;;;5050193;28;20208;-77
2024/01/23 07:11:08;;;;;;;12.18;2.03;;;8.40;99.90;;;;;;5053685;28;20236;-77
2024/01/23 07:13:33;;;;;;;10.33;3.70;;;8.40;99.90;;;;;;5022879;28;20211;-78
2024/01/23 07:15:59;;;;;;;11.73;2.17;;;8.40;99.90;;;;;;5055785;28;20710;-78
2024/01/23 07:18:25;;;;;;;9.50;1.83;;;8.40;99.90;;;;;;5079859;28;20874;-78
2024/01/23 07:20:50;;;;;;;12.13;3.10;;;8.40;99.90;;;;;;5087983;28;20218;-77
2024/01/23 07:23:16;;;;;;;11.50;2.00;;;8.40;99.90;;;;;;5044987;28;20183;-77
2024/01/23 07:25:42;;;;;;;9.40;2.33;;;8.40;99.90;;;;;;5064636;28;20180;-77
2024/01/23 07:28:07;;;;;;;11.77;2.10;;;8.40;99.90;;;;;;5033440;28;20291;-77
2024/01/23 07:30:34;;;;;;;11.83;2.20;;;8.40;99.90;;;;;;5051519;28;20314;-76
2024/01/23 07:33:00;;;;;;;12.23;2.22;;;8.40;99.90;;;;;;5054824;28;20176;-77
2024/01/23 07:35:26;;;;;;;15.25;3.17;;;8.40;99.90;;;;;;5048774;28;20332;-77
2024/01/23 07:37:52;;;;;;;14.53;2.43;;;8.40;99.90;;;;;;5053893;28;20211;-77
2024/01/23 07:40:18;;;;;;;11.23;2.10;;;8.40;99.90;;;;;;5072627;28;20192;-77
2024/01/23 07:42:43;;;;;;;11.00;1.97;;;8.50;99.90;;;;;;5038103;28;20172;-77
2024/01/23 07:45:09;;;;;;;9.73;1.87;;;8.50;99.90;;;;;;5070241;28;20286;-77
2024/01/23 07:47:35;;;;;;;16.50;2.63;;;8.50;99.90;;;;;;5053292;28;20233;-77
2024/01/23 07:50:03;;;;;;;13.82;1.55;;;8.50;99.90;;;;;;5072108;28;20208;-76
2024/01/23 07:52:31;;;;;;;7.07;2.33;;;8.50;99.90;;;;;;5054476;28;20194;-77
2024/01/23 07:54:57;;;;;;;16.23;2.13;;;8.50;99.90;;;;;;5036840;28;20243;-76
2024/01/23 07:57:23;;;;;;;8.45;1.90;;;8.60;99.90;;;;;;5038014;28;20172;-77
2024/01/23 07:59:48;;;;;;;15.30;2.30;;;8.60;99.90;;;;;;5037356;28;20243;-77
2024/01/23 08:02:14;;;;;;;16.80;3.60;;;8.60;99.90;;;;;;5053706;28;21163;-76
2024/01/23 08:04:40;;;;;;;8.43;1.60;;;8.60;99.90;;;;;;5052310;28;20203;-76
2024/01/23 08:07:06;;;;;;;9.40;2.27;;;8.60;99.90;;;;;;5030521;28;20218;-76
2024/01/23 08:09:32;;;;;;;8.68;2.30;;;8.70;99.90;;;;;;5064042;28;20197;-76
2024/01/23 08:11:58;;;;;;;13.03;2.43;;;8.70;99.90;;;;;;5033418;28;20567;-76
2024/01/23 08:14:24;;;;;;;7.20;1.63;;;8.70;99.90;;;;;;5073221;28;20168;-75
2024/01/23 08:16:50;;;;;;;14.37;2.80;;;8.70;99.90;;;;;;5085935;28;20217;-75
2024/01/23 08:19:16;;;;;;;9.93;2.33;;;8.80;99.90;;;;;;5070731;28;20265;-75
2024/01/23 08:21:42;;;;;;;6.87;1.53;;;8.80;99.90;;;;;;5052545;28;20172;-75
2024/01/23 08:24:07;;;;;;;7.67;1.50;;;8.80;99.90;;;;;;5044193;28;20636;-73
2024/01/23 08:26:33;;;;;;;13.10;2.97;;;8.90;99.90;;;;;;5037913;28;20188;-73
2024/01/23 08:28:59;;;;;;;11.90;2.27;;;8.90;99.90;;;;;;5051749;28;20172;-73
2024/01/23 08:31:25;;;;;;;12.27;2.40;;;8.90;99.90;;;;;;5062901;28;20712;-73
2024/01/23 08:33:50;;;;;;;7.80;2.07;;;9.00;99.90;;;;;;5048628;28;20583;-73
2024/01/23 08:36:16;;;;;;;7.70;1.93;;;9.00;99.90;;;;;;5046711;28;20275;-73
2024/01/23 08:38:43;;;;;;;10.60;2.20;;;9.10;99.90;;;;;;5067557;28;20579;-73
2024/01/23 08:41:09;;;;;;;9.57;1.90;;;9.10;99.90;;;;;;5045528;28;21017;-73
2024/01/23 08:43:35;;;;;;;9.88;1.63;;;9.10;99.90;;;;;;5050839;28;20183;-73
2024/01/23 08:46:01;;;;;;;12.07;2.43;;;9.20;99.90;;;;;;5046927;28;20177;-73
2024/01/23 08:48:28;;;;;;;10.83;2.03;;;9.20;99.90;;;;;;5047448;28;20729;-73
2024/01/23 08:50:53;;;;;;;9.15;1.42;;;9.30;99.90;;;;;;5065768;28;20205;-73
2024/01/23 08:53:19;;;;;;;7.50;2.03;;;9.30;99.90;;;;;;5064958;28;20538;-73
2024/01/23 08:55:47;;;;;;;6.17;1.97;;;9.40;99.90;;;;;;5055390;28;20203;-73
2024/01/23 08:58:29;;;;;;;6.43;1.58;;;9.40;99.90;;;;;;5071355;28;20188;-73
2024/01/23 09:00:55;;;;;;;7.93;1.73;;;9.50;99.90;;;;;;5026454;28;20231;-73
2024/01/23 09:03:21;;;;;;;8.27;2.70;;;9.50;99.90;;;;;;5039091;28;20212;-73
2024/01/23 09:05:48;;;;;;;10.97;1.83;;;9.60;99.90;;;;;;5044556;28;20671;-73
2024/01/23 09:08:13;;;;;;;8.73;2.97;;;9.60;99.90;;;;;;5072793;28;20638;-73
2024/01/23 09:10:39;;;;;;;8.53;2.03;;;9.70;99.90;;;;;;5073139;28;20195;-73
2024/01/23 09:13:05;;;;;;;11.27;3.00;;;9.70;99.90;;;;;;5045652;28;20279;-73
2024/01/23 09:15:31;;;;;;;12.87;2.23;;;9.70;99.90;;;;;;5049137;28;20177;-73
2024/01/23 09:17:57;;;;;;;6.63;1.55;;;9.80;99.90;;;;;;5051548;28;20749;-73
2024/01/23 09:20:24;;;;;;;12.93;4.20;;;9.90;99.90;;;;;;5033550;28;20294;-73
2024/01/23 09:22:50;;;;;;;12.30;3.05;;;10.00;99.90;;;;;;5043126;28;20180;-73
2024/01/23 09:25:19;;;;;;;12.02;2.42;;;10.00;99.90;;;;;;5063881;28;20683;-73
2024/01/23 09:27:46;;;;;;;13.35;3.08;;;10.00;99.90;;;;;;5066527;28;20193;-73
2024/01/23 09:30:13;;;;;;;12.52;2.40;;;10.10;99.90;;;;;;5070836;28;20261;-73
2024/01/23 09:32:38;;;;;;;10.15;2.67;;;10.10;99.90;;;;;;5046725;28;20172;-73
2024/01/23 09:35:06;;;;;;;6.73;2.50;;;10.20;99.90;;;;;;5054185;28;20184;-73
2024/01/23 09:37:32;;;;;;;19.05;2.85;;;10.20;99.90;;;;;;5046620;28;20234;-73
2024/01/23 09:39:58;;;;;;;10.43;3.22;;;10.30;99.90;;;;;;5072600;28;20298;-73
2024/01/23 09:42:24;;;;;;;14.90;4.07;;;10.30;99.90;;;;;;5036863;28;20649;-73
2024/01/23 09:44:55;;;;;;;9.32;2.65;;;10.30;99.90;;;;;;5046707;28;20231;-73
2024/01/23 09:47:23;;;;;;;11.82;2.72;;;10.40;99.90;;;;;;5045476;28;20204;-73
2024/01/23 09:49:51;;;;;;;13.32;2.47;;;10.40;99.90;;;;;;5047859;28;20212;-73
2024/01/23 09:52:18;;;;;;;11.25;3.47;;;10.50;99.90;;;;;;5053339;28;20192;-74
2024/01/23 09:54:45;;;;;;;12.38;3.78;;;10.50;99.90;;;;;;5045610;28;20177;-73
2024/01/23 09:57:12;;;;;;;13.05;4.07;;;10.60;99.90;;;;;;5053142;28;20183;-73
2024/01/23 09:59:40;;;;;;;19.05;4.35;;;10.60;99.90;;;;;;5034745;28;20200;-73
2024/01/23 10:02:09;;;;;;;9.00;3.30;;;10.70;99.90;;;;;;5061083;28;20534;-73
2024/01/23 10:04:35;;;;;;;15.48;3.88;;;10.70;99.90;;;;;;5049881;28;20181;-73
2024/01/23 10:07:06;;;;;;;10.25;2.60;;;10.80;99.90;;;;;;5046843;28;20193;-73
2024/01/23 10:09:32;;;;;;;11.20;3.38;;;10.80;99.90;;;;;;5030344;28;20210;-73
2024/01/23 10:11:58;;;;;;;12.70;2.63;;;10.80;99.90;;;;;;5072868;28;20176;-74
2024/01/23 10:14:24;;;;;;;10.10;2.10;;;10.90;99.90;;;;;;5055003;28;20602;-74
2024/01/23 10:16:50;;;;;;;10.13;2.80;;;10.90;99.90;;;;;;5038303;28;20244;-74
2024/01/23 10:19:16;;;;;;;6.63;2.50;;;11.00;99.90;;;;;;5072327;28;20196;-74
2024/01/23 10:21:42;;;;;;;14.82;3.63;;;11.00;99.90;;;;;;5072615;28;20628;-74
2024/01/23 10:24:08;;;;;;;11.63;2.27;;;11.10;99.90;;;;;;5072781;28;20172;-74
2024/01/23 10:26:34;;;;;;;9.85;2.33;;;11.10;99.90;;;;;;5054580;28;20180;-74
2024/01/23 10:29:04;;;;;;;13.80;3.60;;;11.20;99.90;;;;;;5021598;28;20653;-75
2024/01/23 10:31:30;;;;;;;14.05;5.15;;;11.30;99.90;;;;;;5054963;28;20179;-76
2024/01/23 10:33:57;;;;;;;11.25;3.53;;;11.30;99.90;;;;;;5055565;28;20181;-74
2024/01/23 10:36:23;;;;;;;14.93;3.80;;;11.40;99.90;;;;;;5046797;28;20184;-76
2024/01/23 10:38:50;;;;;;;11.40;3.05;;;11.40;99.90;;;;;;5055057;28;20176;-74
2024/01/23 10:41:23;;;;;;;13.27;3.17;;;11.40;99.90;;;;;;5054460;28;20219;-74
2024/01/23 10:43:52;;;;;;;12.48;3.72;;;11.40;99.90;;;;;;5054347;28;20216;-75
2024/01/23 10:46:18;;;;;;;9.25;3.58;;;11.50;99.90;;;;;;5043852;28;20204;-75
2024/01/23 10:48:44;;;;;;;7.20;3.00;;;11.50;99.90;;;;;;5017722;28;20222;-74
2024/01/23 10:51:20;;;;;;;13.73;2.53;;;11.50;99.90;;;;;;5034342;28;20284;-74
2024/01/23 10:53:57;;;;;;;13.98;2.65;;;11.60;99.90;;;;;;5051859;28;20161;-74
2024/01/23 10:56:29;;;;;;;13.20;2.67;;;11.60;99.90;;;;;;5051968;28;20200;-74
2024/01/23 10:59:00;;;;;;;13.60;2.45;;;11.60;99.90;;;;;;5041188;28;20203;-75
2024/01/23 11:01:32;;;;;;;11.52;2.65;;;11.70;99.90;;;;;;5053853;28;20266;-75
2024/01/23 11:04:00;;;;;;;12.38;2.97;;;11.70;99.90;;;;;;5072189;28;20172;-75
2024/01/23 11:06:32;;;;;;;7.88;2.47;;;11.70;99.90;;;;;;5071923;28;20180;-75
2024/01/23 11:09:12;;;;;;;11.68;4.03;;;11.70;99.90;;;;;;5056199;28;20184;-75
2024/01/23 11:11:58;;;;;;;10.83;3.67;;;11.80;99.90;;;;;;5034674;28;20165;-74
2024/01/23 11:14:29;;;;;;;7.25;2.15;;;11.80;99.90;;;;;;5053018;28;20630;-75
2024/01/23 11:17:06;;;;;;;10.57;2.23;;;11.80;99.90;;;;;;5034205;28;20228;-75
2024/01/23 11:20:03;;;;;;;11.88;3.25;;;11.80;99.90;;;;;;5034555;28;20611;-74
2024/01/23 11:22:29;;;;;;;10.00;2.83;;;11.90;99.90;;;;;;5033936;28;20184;-75
2024/01/23 11:24:55;;;;;;;7.23;2.30;;;12.00;99.90;;;;;;5033984;28;21114;-74
2024/01/23 11:27:22;;;;;;;13.83;3.27;;;12.10;99.90;;;;;;5033563;28;20244;-74
2024/01/23 11:29:49;;;;;;;9.90;2.00;;;12.20;99.90;;;;;;5051391;28;20578;-75
2024/01/23 11:32:19;;;;;;;11.90;2.65;;;12.20;99.90;;;;;;5050857;28;20600;-74
2024/01/23 11:34:46;;;;;;;10.80;2.40;;;12.20;99.90;;;;;;5064524;28;20172;-75
2024/01/23 11:37:49;;;;;;;13.37;2.23;;;12.30;99.90;;;;;;5069844;28;21183;-76
2024/01/23 11:40:27;;;;;;;18.58;3.50;;;12.30;99.90;;;;;;5036434;28;21205;-75
2024/01/23 11:42:54;;;;;;;13.77;2.80;;;12.30;99.90;;;;;;5071106;28;20168;-75
2024/01/23 11:45:28;;;;;;;14.27;2.87;;;12.40;99.90;;;;;;5026573;28;20679;-74
2024/01/23 11:47:59;;;;;;;8.77;1.90;;;12.40;99.90;;;;;;5045866;28;21098;-75
2024/01/23 11:50:27;;;;;;;13.97;2.63;;;12.50;99.90;;;;;;5062683;28;20625;-74
2024/01/23 11:52:55;;;;;;;14.90;2.97;;;12.60;99.90;;;;;;5071158;28;20575;-74
2024/01/23 11:55:22;;;;;;;18.77;3.23;;;12.60;99.90;;;;;;5071337;28;20581;-76
2024/01/23 11:57:53;;;;;;;11.23;2.33;;;12.60;99.90;;;;;;5053293;28;20578;-74
2024/01/23 12:00:19;;;;;;;10.50;2.72;;;12.70;99.90;;;;;;5052044;28;20633;-75
2024/01/23 12:02:47;;;;;;;16.80;3.37;;;12.70;99.90;;;;;;5084393;28;20276;-76
2024/01/23 12:05:13;;;;;;;10.67;2.90;;;12.70;99.90;;;;;;5073434;28;20713;-75
2024/01/23 12:07:40;;;;;;;9.50;2.40;;;12.70;99.90;;;;;;5052858;28;20622;-75
2024/01/23 12:10:10;;;;;;;10.77;2.30;;;12.60;99.90;;;;;;5071119;28;20939;-74
2024/01/23 12:12:37;;;;;;;12.60;4.10;;;12.60;99.90;;;;;;5052939;28;20653;-74
2024/01/23 12:15:05;;;;;;;13.30;2.70;;;12.60;99.90;;;;;;5052951;28;20646;-75
2024/01/23 12:17:36;;;;;;;12.90;2.50;;;12.60;99.90;;;;;;5036249;28;20685;-74
2024/01/23 12:20:07;;;;;;;13.00;3.67;;;12.60;99.90;;;;;;5052876;28;20246;-75
2024/01/23 12:22:33;;;;;;;18.03;2.87;;;12.60;99.90;;;;;;5052921;28;20566;-75
2024/01/23 12:24:59;;;;;;;9.53;2.23;;;12.70;99.90;;;;;;5070994;28;20578;-74
2024/01/23 12:27:25;;;;;;;10.17;2.27;;;12.70;99.90;;;;;;5053159;28;20192;-75
2024/01/23 12:29:51;;;;;;;8.73;2.87;;;12.80;99.90;;;;;;5070608;28;20628;-74
2024/01/23 12:32:17;;;;;;;10.33;2.43;;;12.90;99.90;;;;;;5070908;28;20210;-74
2024/01/23 12:34:45;;;;;;;12.33;1.93;;;13.00;99.90;;;;;;5071162;28;20578;-74
2024/01/23 12:37:11;;;;;;;8.30;2.40;;;12.90;99.90;;;;;;5052626;28;20602;-74
2024/01/23 12:39:36;;;;;;;13.40;2.37;;;13.00;99.90;;;;;;5069702;28;20892;-75
2024/01/23 12:42:02;;;;;;;12.63;2.60;;;13.00;99.90;;;;;;5033011;28;20687;-75
2024/01/23 12:44:30;;;;;;;13.50;3.43;;;13.00;99.90;;;;;;5050804;28;20674;-75